Sand City, California
Current Conditions -  °F | °C
As of 1:54 AM on Tuesday 21 Oct 2014 (Local Time) from KMRY Reporting Station
Clear Clear  
Wind Chill: 53°   Ceiling: Unl
Heat Index: 53°   Visibility: 10mi
Dew Point: 51°   Wind: 6mph
Humidity: 93%   Direction: 80°E
Pressure: 30.08"   Gusts: NA
Location:  36.6221°N, 121.821°W
Report Text: KMRY 210854Z AUTO 08005KT 10SM CLR 12/11 A3008 RMK AO2 SLP199 T01170106 51004
Loading
Personal Weather Stations






























Interactive Weather Map
Tropical Storm Tracking
New forecast layout! Learn more

10-Day Weather Forecast

Advertisements
Track Severe Weather on mobile